createdAt,value
2023-03-31T00:01:42.162Z,100505.82
2023-03-31T00:04:16.757Z,100504.67
2023-03-31T00:06:50.184Z,100494.80
2023-03-31T00:09:23.631Z,100495.47
2023-03-31T00:11:58.366Z,100494.48
2023-03-31T00:14:31.802Z,100493.50
2023-03-31T00:17:05.251Z,100473.95
2023-03-31T00:19:40.406Z,100473.77
2023-03-31T00:22:13.263Z,100473.63
2023-03-31T00:24:46.609Z,100459.47
2023-03-31T00:27:19.873Z,100455.68
2023-03-31T00:29:54.769Z,100455.53
2023-03-31T00:32:28.267Z,100451.92
2023-03-31T00:35:02.632Z,100451.92
2023-03-31T00:37:36.349Z,100448.30
2023-03-31T00:40:13.382Z,100456.88
2023-03-31T00:42:48.373Z,100456.88
2023-03-31T00:45:32.731Z,100451.42
2023-03-31T00:48:15.413Z,100445.34
2023-03-31T00:50:49.221Z,100435.62
2023-03-31T00:53:27.929Z,100432.98
2023-03-31T00:56:04.703Z,100424.09
2023-03-31T00:58:44.126Z,100422.12
2023-03-31T01:01:20.863Z,100418.50
2023-03-31T01:03:55.828Z,100422.97
2023-03-31T01:06:31.009Z,100416.53
2023-03-31T01:09:07.198Z,100404.20
2023-03-31T01:11:40.952Z,100405.01
2023-03-31T01:14:14.813Z,100402.23
2023-03-31T01:16:50.029Z,100400.41
2023-03-31T01:19:34.864Z,100403.88
2023-03-31T01:22:46.754Z,100402.05
2023-03-31T01:25:50.687Z,100394.33
2023-03-31T01:28:35.326Z,100386.24
2023-03-31T01:31:39.064Z,100373.91
2023-03-31T01:35:04.667Z,100378.85
2023-03-31T01:38:19.008Z,100376.05
2023-03-31T01:41:08.016Z,100374.06
2023-03-31T01:43:48.238Z,100378.35
2023-03-31T01:46:29.721Z,100380.00
2023-03-31T01:49:19.481Z,100373.74
2023-03-31T01:52:01.930Z,100365.69
2023-03-31T01:54:39.610Z,100355.14
2023-03-31T01:57:18.776Z,100358.63
2023-03-31T02:00:00.541Z,100355.00
2023-03-31T02:02:38.777Z,100351.38
2023-03-31T02:05:17.329Z,100346.91
2023-03-31T02:07:54.732Z,100346.77
2023-03-31T02:10:31.438Z,100340.51
2023-03-31T02:13:07.098Z,100342.96
2023-03-31T02:15:44.562Z,100346.59
2023-03-31T02:18:22.840Z,100351.71
2023-03-31T02:20:58.744Z,100347.42
2023-03-31T02:23:33.882Z,100339.34
2023-03-31T02:26:11.305Z,100333.92
2023-03-31T02:28:45.317Z,100335.72
2023-03-31T02:31:32.376Z,100339.02
2023-03-31T02:34:06.089Z,100344.28
2023-03-31T02:36:39.753Z,100346.77
2023-03-31T02:39:17.425Z,100342.48
2023-03-31T02:41:51.342Z,100340.66
2023-03-31T02:44:26.172Z,100338.02
2023-03-31T02:47:00.303Z,100333.73
2023-03-31T02:49:34.805Z,100327.66
2023-03-31T02:52:41.782Z,100338.02
2023-03-31T02:55:46.515Z,100340.98
2023-03-31T02:58:35.654Z,100343.48
2023-03-31T03:01:20.968Z,100350.39
2023-03-31T03:04:09.904Z,100345.13
2023-03-31T03:06:54.400Z,100345.13
2023-03-31T03:09:46.398Z,100346.77
2023-03-31T03:12:24.514Z,100348.56
2023-03-31T03:15:03.849Z,100348.56
2023-03-31T03:17:40.769Z,100349.23
2023-03-31T03:20:16.565Z,100342.16
2023-03-31T03:22:51.274Z,100345.78
2023-03-31T03:25:24.792Z,100337.88
2023-03-31T03:27:58.389Z,100341.17
2023-03-31T03:30:32.235Z,100338.36
2023-03-31T03:33:07.248Z,100329.45
2023-03-31T03:35:40.638Z,100334.73
2023-03-31T03:38:13.858Z,100331.11
2023-03-31T03:40:49.609Z,100328.32
2023-03-31T03:43:24.353Z,100329.13
2023-03-31T03:45:57.850Z,100334.40
2023-03-31T03:48:31.567Z,100328.32
2023-03-31T03:51:05.899Z,100327.48
2023-03-31T03:53:39.360Z,100315.28
2023-03-31T03:56:12.938Z,100315.14
2023-03-31T03:58:46.283Z,100319.42
2023-03-31T04:01:19.894Z,100326.48
2023-03-31T04:03:53.356Z,100324.69
2023-03-31T04:06:27.492Z,100328.14
2023-03-31T04:09:01.837Z,100328.98
2023-03-31T04:11:36.941Z,100321.06
2023-03-31T04:14:10.841Z,100326.34
2023-03-31T04:16:46.982Z,100325.35
2023-03-31T04:19:22.049Z,100309.35
2023-03-31T04:21:59.222Z,100310.19
2023-03-31T04:24:33.286Z,100313.48
2023-03-31T04:27:07.959Z,100313.30
2023-03-31T04:29:42.774Z,100307.87
2023-03-31T04:32:22.114Z,100306.89
2023-03-31T04:35:03.311Z,100307.55
2023-03-31T04:37:39.354Z,100305.72
2023-03-31T04:40:16.650Z,100301.09
2023-03-31T04:42:50.048Z,100313.14
2023-03-31T04:45:23.645Z,100306.88
2023-03-31T04:47:56.642Z,100305.89
2023-03-31T04:50:30.023Z,100303.91
2023-03-31T04:53:04.019Z,100296.00
2023-03-31T04:55:38.030Z,100293.02
2023-03-31T04:58:11.476Z,100299.77
2023-03-31T05:00:44.608Z,100287.23
2023-03-31T05:03:18.381Z,100295.80
2023-03-31T05:05:51.870Z,100287.55
2023-03-31T05:08:27.293Z,100289.05
2023-03-31T05:11:00.865Z,100285.88
2023-03-31T05:13:34.868Z,100284.55
2023-03-31T05:16:14.633Z,100279.81
2023-03-31T05:18:48.644Z,100272.70
2023-03-31T05:21:23.504Z,100275.84
2023-03-31T05:23:57.307Z,100271.03
2023-03-31T05:26:30.650Z,100270.03
2023-03-31T05:29:03.890Z,100267.05
2023-03-31T05:31:37.160Z,100264.08
2023-03-31T05:34:10.839Z,100263.08
2023-03-31T05:36:44.838Z,100257.64
2023-03-31T05:39:19.054Z,100257.64
2023-03-31T05:41:52.085Z,100253.36
2023-03-31T05:44:26.858Z,100249.88
2023-03-31T05:47:00.400Z,100246.44
2023-03-31T05:49:33.711Z,100240.16
2023-03-31T05:52:07.671Z,100238.33
2023-03-31T05:54:42.237Z,100237.69
2023-03-31T05:57:16.130Z,100235.69
2023-03-31T05:59:49.904Z,100239.52
2023-03-31T06:02:24.058Z,100234.23
2023-03-31T06:04:57.918Z,100236.22
2023-03-31T06:07:30.913Z,100225.83
2023-03-31T06:10:04.660Z,100230.95
2023-03-31T06:12:38.515Z,100224.67
2023-03-31T06:15:13.576Z,100223.49
2023-03-31T06:17:46.788Z,100223.34
2023-03-31T06:20:28.233Z,100224.80
2023-03-31T06:23:01.731Z,100213.08
2023-03-31T06:25:43.978Z,100210.44
2023-03-31T06:28:22.456Z,100209.27
2023-03-31T06:31:03.724Z,100209.10
2023-03-31T06:33:38.049Z,100201.00
2023-03-31T06:36:13.639Z,100199.00
2023-03-31T06:38:47.859Z,100205.12
2023-03-31T06:41:22.715Z,100208.41
2023-03-31T06:43:56.525Z,100205.42
2023-03-31T06:46:30.162Z,100217.28
2023-03-31T06:49:04.411Z,100220.57
2023-03-31T06:51:37.809Z,100209.17
2023-03-31T06:54:11.117Z,100212.65
2023-03-31T06:56:44.575Z,100211.66
2023-03-31T06:59:17.953Z,100220.37
2023-03-31T07:01:51.546Z,100210.81
2023-03-31T07:04:25.097Z,100215.45
2023-03-31T07:06:59.569Z,100206.07
2023-03-31T07:09:32.914Z,100195.52
2023-03-31T07:12:06.617Z,100198.15
2023-03-31T07:14:40.337Z,100193.03
2023-03-31T07:17:13.775Z,100194.86
2023-03-31T07:19:54.054Z,100197.50
2023-03-31T07:22:26.990Z,100190.58
2023-03-31T07:25:00.276Z,100189.93
2023-03-31T07:27:33.447Z,100196.86
2023-03-31T07:30:08.365Z,100199.66
2023-03-31T07:32:41.683Z,100194.56
2023-03-31T07:35:15.180Z,100187.29
2023-03-31T07:37:50.444Z,100182.81
2023-03-31T07:40:25.754Z,100180.83
2023-03-31T07:42:59.338Z,100179.67
2023-03-31T07:45:33.144Z,100174.05
2023-03-31T07:48:07.166Z,100170.41
2023-03-31T07:50:41.559Z,100167.77
2023-03-31T07:53:20.898Z,100169.41
2023-03-31T07:55:54.297Z,100163.94
2023-03-31T07:58:27.399Z,100168.06
2023-03-31T08:01:01.495Z,100171.99
2023-03-31T08:03:35.376Z,100162.88
2023-03-31T08:06:09.959Z,100161.53
2023-03-31T08:08:43.729Z,100151.26
2023-03-31T08:11:18.190Z,100149.75
2023-03-31T08:13:51.741Z,100134.99
2023-03-31T08:16:24.963Z,100131.64
2023-03-31T08:18:58.325Z,100125.00
2023-03-31T08:21:32.366Z,100129.40
2023-03-31T08:24:06.157Z,100122.56
2023-03-31T08:26:39.746Z,100110.11
2023-03-31T08:29:13.746Z,100104.73
2023-03-31T08:31:47.043Z,100103.81
2023-03-31T08:34:20.601Z,100098.27
2023-03-31T08:36:53.930Z,100095.33
2023-03-31T08:39:27.753Z,100096.06
2023-03-31T08:42:08.121Z,100085.55
2023-03-31T08:44:47.142Z,100082.44
2023-03-31T08:47:24.548Z,100073.20
2023-03-31T08:50:01.922Z,100070.87
2023-03-31T08:52:39.901Z,100064.92
2023-03-31T08:55:20.070Z,100059.58
2023-03-31T08:58:01.974Z,100050.92
2023-03-31T09:00:51.160Z,100054.97
2023-03-31T09:03:35.152Z,100051.02
2023-03-31T09:06:13.554Z,100042.60
2023-03-31T09:08:46.970Z,100033.34
2023-03-31T09:11:31.576Z,100043.67
2023-03-31T09:14:23.243Z,100030.51
2023-03-31T09:17:09.404Z,100021.38
2023-03-31T09:19:46.879Z,100026.31
2023-03-31T09:22:24.627Z,100025.33
2023-03-31T09:25:05.296Z,100022.47
2023-03-31T09:27:41.549Z,100011.78
2023-03-31T09:30:22.500Z,100031.38
2023-03-31T09:33:04.338Z,100016.78
2023-03-31T09:35:38.571Z,100012.42
2023-03-31T09:38:13.756Z,100010.91
2023-03-31T09:40:47.379Z,99998.92
2023-03-31T09:43:26.019Z,100001.89
2023-03-31T09:46:09.241Z,99997.90
2023-03-31T09:48:48.687Z,99987.97
2023-03-31T09:51:27.520Z,99969.79
2023-03-31T09:54:04.086Z,99964.92
2023-03-31T09:56:48.947Z,99966.03
2023-03-31T09:59:23.412Z,99968.80
2023-03-31T10:01:59.736Z,99965.59
2023-03-31T10:04:36.407Z,99967.96
2023-03-31T10:07:13.045Z,99961.97
2023-03-31T10:09:46.478Z,99962.11
2023-03-31T10:12:24.567Z,99958.55
2023-03-31T10:15:04.300Z,99961.70
2023-03-31T10:17:53.789Z,99954.67
2023-03-31T10:20:36.235Z,99946.34
2023-03-31T10:23:17.331Z,99947.93
2023-03-31T10:25:51.613Z,99939.81
2023-03-31T10:28:25.737Z,99947.95
2023-03-31T10:31:03.374Z,99943.79
2023-03-31T10:33:39.904Z,99935.91
2023-03-31T10:36:24.165Z,99931.06
2023-03-31T10:38:58.802Z,99930.48
2023-03-31T10:41:33.483Z,99919.25
2023-03-31T10:44:07.831Z,99928.30
2023-03-31T10:46:49.185Z,99923.45
2023-03-31T10:49:28.776Z,99922.05
2023-03-31T10:52:03.139Z,99914.70
2023-03-31T10:54:38.005Z,99913.33
2023-03-31T10:57:11.640Z,99898.77
2023-03-31T11:00:05.062Z,99899.45
2023-03-31T11:03:15.206Z,99894.23
2023-03-31T11:05:52.553Z,99889.20
2023-03-31T11:08:45.239Z,99888.83
2023-03-31T11:11:45.274Z,99879.28
2023-03-31T11:14:30.828Z,99871.34
2023-03-31T11:17:14.271Z,99874.13
2023-03-31T11:19:59.250Z,99874.80
2023-03-31T11:22:39.614Z,99866.72
2023-03-31T11:25:22.217Z,99870.16
2023-03-31T11:28:14.667Z,99874.38
2023-03-31T11:30:53.793Z,99864.48
2023-03-31T11:33:45.031Z,99865.21
2023-03-31T11:36:31.011Z,99859.70
2023-03-31T11:39:25.947Z,99839.84
2023-03-31T11:42:04.723Z,99833.94
2023-03-31T11:44:43.021Z,99828.55
2023-03-31T11:47:20.588Z,99831.22
2023-03-31T11:50:00.672Z,99824.73
2023-03-31T11:52:38.958Z,99826.80
2023-03-31T11:55:18.065Z,99822.17
2023-03-31T11:58:00.926Z,99829.30
2023-03-31T12:00:38.868Z,99821.13
2023-03-31T12:03:17.287Z,99808.88
2023-03-31T12:05:54.392Z,99807.91
2023-03-31T12:08:37.252Z,99795.61
2023-03-31T12:11:16.131Z,99802.72
2023-03-31T12:13:53.993Z,99800.63
2023-03-31T12:16:37.301Z,99799.08
2023-03-31T12:19:17.426Z,99794.55
2023-03-31T12:21:57.188Z,99786.28
2023-03-31T12:24:32.101Z,99787.39
2023-03-31T12:27:14.965Z,99787.69
2023-03-31T12:29:53.081Z,99787.70
2023-03-31T12:32:32.368Z,99775.61
2023-03-31T12:35:15.604Z,99770.52
2023-03-31T12:38:17.390Z,99764.59
2023-03-31T12:41:00.995Z,99760.27
2023-03-31T12:43:57.325Z,99770.22
2023-03-31T12:46:52.920Z,99764.83
2023-03-31T12:49:37.639Z,99761.33
2023-03-31T12:52:16.014Z,99754.58
2023-03-31T12:55:21.775Z,99759.16
2023-03-31T12:57:55.168Z,99750.78
2023-03-31T13:00:32.066Z,99737.58
2023-03-31T13:03:43.386Z,99739.44
2023-03-31T13:06:56.867Z,99739.70
2023-03-31T13:09:55.290Z,99721.61
2023-03-31T13:12:33.359Z,99723.48
2023-03-31T13:15:15.082Z,99721.31
2023-03-31T13:17:59.853Z,99711.05
2023-03-31T13:20:38.152Z,99704.26
2023-03-31T13:23:20.882Z,99701.00
2023-03-31T13:25:55.593Z,99698.28
2023-03-31T13:28:40.055Z,99690.45
2023-03-31T13:31:14.985Z,99693.12
2023-03-31T13:33:57.834Z,99686.34
2023-03-31T13:36:59.300Z,99685.78
2023-03-31T13:40:02.191Z,99683.09
2023-03-31T13:43:03.233Z,99675.55
2023-03-31T13:45:56.579Z,99673.12
2023-03-31T13:48:44.016Z,99669.03
2023-03-31T13:51:34.209Z,99673.12
2023-03-31T13:54:50.098Z,99665.58
2023-03-31T13:57:55.133Z,99660.97
2023-03-31T14:00:43.066Z,99656.40
2023-03-31T14:03:30.851Z,99646.66
2023-03-31T14:06:07.936Z,99649.88
2023-03-31T14:08:53.575Z,99648.80
2023-03-31T14:11:28.772Z,99650.67
2023-03-31T14:14:06.611Z,99644.19
2023-03-31T14:16:42.279Z,99644.45
2023-03-31T14:19:48.224Z,99645.77
2023-03-31T14:22:32.937Z,99641.71
2023-03-31T14:25:17.018Z,99642.23
2023-03-31T14:28:01.310Z,99642.50
2023-03-31T14:30:47.192Z,99652.51
2023-03-31T14:33:38.520Z,99646.02
2023-03-31T14:36:21.396Z,99645.98
2023-03-31T14:38:54.994Z,99635.94
2023-03-31T14:41:31.328Z,99638.37
2023-03-31T14:44:07.381Z,99637.32
2023-03-31T14:46:42.404Z,99640.33
2023-03-31T14:49:26.614Z,99638.48
2023-03-31T14:52:14.124Z,99638.80
2023-03-31T14:54:49.270Z,99646.70
2023-03-31T14:57:27.998Z,99650.25
2023-03-31T15:00:05.375Z,99648.14
2023-03-31T15:02:42.625Z,99648.73
2023-03-31T15:05:31.353Z,99650.66
2023-03-31T15:08:06.101Z,99650.95
2023-03-31T15:10:42.521Z,99654.72
2023-03-31T15:13:20.734Z,99652.61
2023-03-31T15:15:54.411Z,99654.53
2023-03-31T15:18:29.518Z,99650.77
2023-03-31T15:21:03.652Z,99655.10
2023-03-31T15:23:37.289Z,99662.38
2023-03-31T15:26:15.194Z,99663.48
2023-03-31T15:28:54.778Z,99652.73
2023-03-31T15:31:31.087Z,99655.44
2023-03-31T15:34:17.018Z,99659.77
2023-03-31T15:36:50.693Z,99666.24
2023-03-31T15:39:24.344Z,99652.53
2023-03-31T15:41:59.281Z,99653.87
2023-03-31T15:44:40.098Z,99652.54
2023-03-31T15:47:20.217Z,99652.80
2023-03-31T15:49:59.300Z,99659.27
2023-03-31T15:52:36.855Z,99661.17
2023-03-31T15:55:31.197Z,99655.51
2023-03-31T15:58:05.320Z,99660.90
2023-03-31T16:00:53.464Z,99659.25
2023-03-31T16:03:31.337Z,99658.19
2023-03-31T16:06:11.147Z,99661.70
2023-03-31T16:08:48.755Z,99665.47
2023-03-31T16:11:25.880Z,99661.95
2023-03-31T16:14:06.303Z,99665.19
2023-03-31T16:16:41.619Z,99664.64
2023-03-31T16:19:15.697Z,99670.02
2023-03-31T16:21:53.458Z,99670.27
2023-03-31T16:24:33.600Z,99672.95
2023-03-31T16:27:09.640Z,99670.78
2023-03-31T16:29:43.079Z,99678.58
2023-03-31T16:32:18.554Z,99665.90
2023-03-31T16:35:00.303Z,99675.30
2023-03-31T16:37:34.184Z,99676.86
2023-03-31T16:40:10.146Z,99681.13
2023-03-31T16:42:43.549Z,99685.94
2023-03-31T16:45:17.375Z,99686.68
2023-03-31T16:47:53.118Z,99684.77
2023-03-31T16:50:28.805Z,99683.89
2023-03-31T16:53:03.224Z,99676.84
2023-03-31T16:55:37.020Z,99678.67
2023-03-31T16:58:11.041Z,99680.22
2023-03-31T17:00:45.895Z,99680.95
2023-03-31T17:03:19.525Z,99677.39
2023-03-31T17:05:56.258Z,99685.57
2023-03-31T17:08:31.488Z,99696.22
2023-03-31T17:11:07.118Z,99682.43
2023-03-31T17:13:41.852Z,99689.83
2023-03-31T17:16:20.327Z,99691.58
2023-03-31T17:18:57.507Z,99689.30
2023-03-31T17:21:31.449Z,99698.28
2023-03-31T17:24:07.108Z,99695.25
2023-03-31T17:26:40.500Z,99699.99
2023-03-31T17:29:15.467Z,99703.91
2023-03-31T17:31:50.270Z,99700.00
2023-03-31T17:34:23.956Z,99711.95
2023-03-31T17:36:57.395Z,99714.81
2023-03-31T17:39:31.152Z,99718.98
2023-03-31T17:42:04.965Z,99721.25
2023-03-31T17:44:38.244Z,99728.91
2023-03-31T17:47:12.161Z,99718.27
2023-03-31T17:49:45.077Z,99737.19
2023-03-31T17:52:18.333Z,99744.80
2023-03-31T17:54:52.142Z,99747.07
2023-03-31T17:57:26.188Z,99739.19
2023-03-31T18:00:00.197Z,99739.67
2023-03-31T18:02:34.057Z,99746.55
2023-03-31T18:05:09.780Z,99750.54
2023-03-31T18:07:43.271Z,99750.20
2023-03-31T18:10:18.853Z,99750.10
2023-03-31T18:12:52.054Z,99750.27
2023-03-31T18:15:26.060Z,99747.70
2023-03-31T18:18:00.221Z,99746.80
2023-03-31T18:20:34.273Z,99746.94
2023-03-31T18:23:07.468Z,99739.29
2023-03-31T18:25:44.138Z,99734.33
2023-03-31T18:28:18.862Z,99733.08
2023-03-31T18:30:53.383Z,99732.66
2023-03-31T18:33:27.388Z,99739.41
2023-03-31T18:36:01.026Z,99731.98
2023-03-31T18:38:37.190Z,99735.84
2023-03-31T18:41:10.970Z,99739.67
2023-03-31T18:43:45.349Z,99740.03
2023-03-31T18:46:20.201Z,99730.17
2023-03-31T18:48:53.701Z,99727.06
2023-03-31T18:51:27.305Z,99727.41
2023-03-31T18:54:00.535Z,99725.84
2023-03-31T18:56:33.800Z,99722.73
2023-03-31T18:59:10.150Z,99725.70
2023-03-31T19:01:44.574Z,99720.70
2023-03-31T19:04:18.090Z,99717.58
2023-03-31T19:06:52.415Z,99718.71
2023-03-31T19:09:28.138Z,99726.00
2023-03-31T19:12:01.634Z,99735.73
2023-03-31T19:14:36.398Z,99734.44
2023-03-31T19:17:09.931Z,99724.89
2023-03-31T19:19:43.261Z,99724.17
2023-03-31T19:22:16.852Z,99726.12
2023-03-31T19:24:50.531Z,99724.35
2023-03-31T19:27:23.947Z,99721.79
2023-03-31T19:29:57.170Z,99710.86
2023-03-31T19:32:30.881Z,99714.62
2023-03-31T19:35:04.881Z,99716.94
2023-03-31T19:37:39.062Z,99719.22
2023-03-31T19:40:14.640Z,99714.58
2023-03-31T19:42:47.734Z,99718.73
2023-03-31T19:45:21.360Z,99715.06
2023-03-31T19:47:55.370Z,99718.99
2023-03-31T19:50:28.925Z,99722.10
2023-03-31T19:53:02.304Z,99717.22
2023-03-31T19:55:37.740Z,99712.34
2023-03-31T19:58:11.556Z,99721.56
2023-03-31T20:00:44.941Z,99717.52
2023-03-31T20:03:18.607Z,99712.04
2023-03-31T20:05:52.360Z,99716.98
2023-03-31T20:08:25.600Z,99714.99
2023-03-31T20:11:04.270Z,99715.05
2023-03-31T20:13:38.714Z,99712.62
2023-03-31T20:16:14.055Z,99710.84
2023-03-31T20:18:49.356Z,99714.14
2023-03-31T20:21:24.565Z,99700.68
2023-03-31T20:23:59.009Z,99693.38
2023-03-31T20:26:33.846Z,99693.41
2023-03-31T20:29:07.439Z,99687.14
2023-03-31T20:31:42.572Z,99693.33
2023-03-31T20:34:17.536Z,99702.18
2023-03-31T20:36:52.070Z,99699.56
2023-03-31T20:39:25.327Z,99700.66
2023-03-31T20:41:58.808Z,99709.50
2023-03-31T20:44:32.564Z,99707.70
2023-03-31T20:47:06.258Z,99707.73
2023-03-31T20:49:39.788Z,99697.96
2023-03-31T20:52:13.098Z,99705.16
2023-03-31T20:54:46.595Z,99700.70
2023-03-31T20:57:19.992Z,99701.56
2023-03-31T20:59:53.321Z,99699.35
2023-03-31T21:02:27.114Z,99700.17
2023-03-31T21:05:01.151Z,99695.10
2023-03-31T21:07:34.503Z,99686.16
2023-03-31T21:10:09.194Z,99697.63
2023-03-31T21:12:46.504Z,99692.33
2023-03-31T21:15:20.281Z,99689.91
2023-03-31T21:17:53.953Z,99684.84
2023-03-31T21:20:26.876Z,99676.08
2023-03-31T21:23:00.106Z,99677.94
2023-03-31T21:25:34.522Z,99678.78
2023-03-31T21:28:08.308Z,99678.20
2023-03-31T21:30:41.715Z,99686.17
2023-03-31T21:33:15.078Z,99680.06
2023-03-31T21:35:49.170Z,99674.78
2023-03-31T21:38:22.903Z,99674.78
2023-03-31T21:40:56.631Z,99671.31
2023-03-31T21:43:30.005Z,99665.20
2023-03-31T21:46:04.121Z,99666.86
2023-03-31T21:48:38.601Z,99661.55
2023-03-31T21:51:12.262Z,99657.06
2023-03-31T21:53:46.143Z,99653.59
2023-03-31T21:56:19.502Z,99652.59
2023-03-31T21:58:53.492Z,99658.90
2023-03-31T22:01:27.106Z,99655.24
2023-03-31T22:04:01.800Z,99649.73
2023-03-31T22:06:36.092Z,99650.55
2023-03-31T22:09:09.503Z,99648.89
2023-03-31T22:11:42.970Z,99644.40
2023-03-31T22:14:16.287Z,99634.98
2023-03-31T22:16:49.821Z,99632.52
2023-03-31T22:19:23.551Z,99629.66
2023-03-31T22:21:58.525Z,99628.25
2023-03-31T22:24:32.121Z,99618.24
2023-03-31T22:27:05.765Z,99615.99
2023-03-31T22:29:39.219Z,99615.59
2023-03-31T22:32:12.596Z,99618.83
2023-03-31T22:34:46.310Z,99615.78
2023-03-31T22:37:20.189Z,99606.39
2023-03-31T22:39:53.713Z,99613.71
2023-03-31T22:42:27.722Z,99614.11
2023-03-31T22:45:00.922Z,99619.00
2023-03-31T22:47:34.353Z,99617.55
2023-03-31T22:50:09.582Z,99610.01
2023-03-31T22:52:42.752Z,99614.06
2023-03-31T22:55:16.407Z,99615.47
2023-03-31T22:57:49.930Z,99620.95
2023-03-31T23:00:24.446Z,99621.34
2023-03-31T23:02:57.976Z,99623.58
2023-03-31T23:05:31.798Z,99627.23
2023-03-31T23:08:05.349Z,99610.75
2023-03-31T23:10:38.823Z,99615.42
2023-03-31T23:13:12.349Z,99619.08
2023-03-31T23:15:45.746Z,99618.45
2023-03-31T23:18:20.674Z,99620.66
2023-03-31T23:20:53.968Z,99624.32
2023-03-31T23:23:26.896Z,99627.17
2023-03-31T23:26:03.581Z,99637.13
2023-03-31T23:28:38.253Z,99637.31
2023-03-31T23:31:13.488Z,99613.91
2023-03-31T23:33:47.507Z,99615.52
2023-03-31T23:36:21.972Z,99628.30
2023-03-31T23:38:57.333Z,99608.37
2023-03-31T23:41:30.838Z,99619.90
2023-03-31T23:44:04.257Z,99621.92
2023-03-31T23:46:38.367Z,99598.34
2023-03-31T23:49:11.887Z,99604.81
2023-03-31T23:51:45.601Z,99603.19
2023-03-31T23:54:19.043Z,99598.11
2023-03-31T23:56:53.033Z,99627.36
2023-03-31T23:59:26.556Z,99624.30
